createdAt,value
2017-10-07T08:19:17.415Z,101219.27
2017-10-07T08:21:54.391Z,101223.02
2017-10-07T08:24:28.733Z,101214.05
2017-10-07T08:26:57.702Z,101214.29
2017-10-07T08:29:26.545Z,101214.16
2017-10-07T08:31:56.015Z,101208.28
2017-10-07T08:34:26.770Z,101210.82
2017-10-07T08:37:02.408Z,101210.89
2017-10-07T08:39:30.883Z,101211.59
2017-10-07T08:42:00.346Z,101202.26
2017-10-07T08:44:28.893Z,101201.22
2017-10-07T08:46:57.241Z,101196.73
2017-10-07T08:49:27.836Z,101190.98
2017-10-07T08:52:01.554Z,101190.11
2017-10-07T08:54:32.005Z,101191.20
2017-10-07T08:57:01.828Z,101185.85
2017-10-07T08:59:33.121Z,101184.19
2017-10-07T09:02:01.620Z,101185.03
2017-10-07T09:04:30.098Z,101166.59
2017-10-07T09:06:59.158Z,101170.77
2017-10-07T09:09:29.979Z,101168.04
2017-10-07T09:11:58.437Z,101169.48
2017-10-07T09:14:26.741Z,101166.81
2017-10-07T09:16:55.189Z,101166.39
2017-10-07T09:19:23.474Z,101163.98
2017-10-07T09:21:52.977Z,101152.90
2017-10-07T09:24:22.926Z,101152.09
2017-10-07T09:26:52.573Z,101150.58
2017-10-07T09:29:20.865Z,101152.52
2017-10-07T09:31:49.250Z,101148.48
2017-10-07T09:34:17.540Z,101150.47
2017-10-07T09:36:45.918Z,101146.14
2017-10-07T09:39:16.576Z,101139.58
2017-10-07T09:41:54.721Z,101132.10
2017-10-07T09:44:23.523Z,101133.91
2017-10-07T09:46:52.037Z,101138.47
2017-10-07T09:49:20.396Z,101145.49
2017-10-07T09:51:48.723Z,101143.66
2017-10-07T09:54:17.065Z,101137.98
2017-10-07T09:56:45.741Z,101129.66
2017-10-07T09:59:14.734Z,101131.52
2017-10-07T10:01:43.361Z,101136.52
2017-10-07T10:04:11.830Z,101134.55
2017-10-07T10:06:40.411Z,101135.02
2017-10-07T10:09:08.819Z,101128.49
2017-10-07T10:11:37.786Z,101127.52
2017-10-07T10:14:07.069Z,101126.84
2017-10-07T10:16:35.530Z,101124.36
2017-10-07T10:19:03.967Z,101113.04
2017-10-07T10:21:32.377Z,101111.47
2017-10-07T10:24:05.313Z,101103.16
2017-10-07T10:29:21.382Z,101095.50
2017-10-07T10:31:51.261Z,101100.27
2017-10-07T10:34:19.512Z,101101.00
2017-10-07T10:36:47.861Z,101099.80
2017-10-07T10:39:16.157Z,101087.98
2017-10-07T10:41:44.516Z,101091.69
2017-10-07T10:44:12.869Z,101091.22
2017-10-07T10:46:42.430Z,101083.80
2017-10-07T10:49:17.223Z,101089.18
2017-10-07T10:51:49.643Z,101080.75
2017-10-07T10:54:21.546Z,101071.94
2017-10-07T10:56:54.527Z,101077.09
2017-10-07T10:59:23.702Z,101073.32
2017-10-07T11:01:52.822Z,101072.92
2017-10-07T11:04:25.482Z,101069.39
2017-10-07T11:06:59.765Z,101075.30
2017-10-07T11:09:28.453Z,101067.71
2017-10-07T11:11:58.528Z,101066.95
2017-10-07T11:14:27.456Z,101060.55
2017-10-07T11:16:58.141Z,101057.16
2017-10-07T11:19:26.985Z,101053.31
2017-10-07T11:21:55.615Z,101052.94
2017-10-07T11:24:24.259Z,101042.78
2017-10-07T11:29:58.223Z,101032.23
2017-10-07T11:32:34.174Z,101029.63
2017-10-07T11:35:14.991Z,101023.05
2017-10-07T11:37:51.605Z,101014.95
2017-10-07T11:40:28.855Z,101008.63
2017-10-07T11:43:02.492Z,100996.13
2017-10-07T11:45:34.042Z,100989.94
2017-10-07T11:48:05.573Z,100987.87
2017-10-07T11:50:35.218Z,100996.27
2017-10-07T11:53:11.843Z,100991.02
2017-10-07T11:55:42.074Z,100984.73
2017-10-07T11:58:10.625Z,100979.03
2017-10-07T12:00:39.483Z,100978.44
2017-10-07T12:03:22.150Z,100969.44
2017-10-07T12:05:54.071Z,100962.72
2017-10-07T12:08:23.413Z,100952.92
2017-10-07T12:10:53.943Z,100958.35
2017-10-07T12:13:25.161Z,100955.49
2017-10-07T12:16:04.788Z,100949.11
2017-10-07T12:18:39.840Z,100940.59
2017-10-07T12:21:17.117Z,100947.09
2017-10-07T12:23:46.493Z,100942.91
2017-10-07T12:26:23.752Z,100948.55
2017-10-07T12:29:06.018Z,100945.05
2017-10-07T12:31:38.040Z,100943.66
2017-10-07T12:34:13.288Z,100936.50
2017-10-07T12:36:43.608Z,100929.22
2017-10-07T12:39:12.801Z,100923.05
2017-10-07T12:41:48.214Z,100921.48
2017-10-07T12:44:17.088Z,100917.34
2017-10-07T12:46:46.105Z,100915.80
2017-10-07T12:49:15.046Z,100910.94
2017-10-07T12:51:44.217Z,100908.36
2017-10-07T12:54:12.878Z,100903.75
2017-10-07T12:56:41.201Z,100898.62
2017-10-07T12:59:09.799Z,100894.76
2017-10-07T13:01:38.277Z,100894.24
2017-10-07T13:04:07.216Z,100888.63
2017-10-07T13:06:36.175Z,100881.30
2017-10-07T13:09:10.693Z,100882.48
2017-10-07T13:11:41.217Z,100874.97
2017-10-07T13:14:10.881Z,100871.83
2017-10-07T13:16:39.668Z,100866.73
2017-10-07T13:19:12.977Z,100866.28
2017-10-07T13:21:45.170Z,100860.78
2017-10-07T13:24:16.871Z,100857.22
2017-10-07T13:26:47.469Z,100865.02
2017-10-07T13:29:30.385Z,100863.55
2017-10-07T13:31:59.789Z,100852.40
2017-10-07T13:34:28.519Z,100848.28
2017-10-07T13:36:57.206Z,100842.29
2017-10-07T13:39:25.779Z,100831.89
2017-10-07T13:41:54.378Z,100830.59
2017-10-07T13:44:23.046Z,100832.06
2017-10-07T13:46:52.467Z,100830.04
2017-10-07T13:49:21.306Z,100821.50
2017-10-07T13:51:50.216Z,100819.34
2017-10-07T13:54:19.215Z,100810.77
2017-10-07T13:56:47.806Z,100808.64
2017-10-07T13:59:16.678Z,100808.78
2017-10-07T14:01:47.077Z,100794.20
2017-10-07T14:04:16.630Z,100789.83
2017-10-07T14:06:45.409Z,100780.76
2017-10-07T14:09:14.228Z,100776.02
2017-10-07T14:11:42.959Z,100770.81
2017-10-07T14:14:11.996Z,100768.19
2017-10-07T14:16:41.398Z,100764.73
2017-10-07T14:19:11.044Z,100769.89
2017-10-07T14:21:39.875Z,100755.77
2017-10-07T14:24:08.651Z,100754.71
2017-10-07T14:26:37.248Z,100745.70
2017-10-07T14:29:05.806Z,100747.09
2017-10-07T14:31:35.076Z,100747.90
2017-10-07T14:34:10.739Z,100735.38
2017-10-07T14:36:40.496Z,100730.59
2017-10-07T14:39:09.070Z,100712.84
2017-10-07T14:41:37.516Z,100714.37
2017-10-07T14:44:07.361Z,100708.11
2017-10-07T14:46:36.669Z,100705.51
2017-10-07T14:49:13.946Z,100691.63
2017-10-07T14:51:43.738Z,100698.05
2017-10-07T14:54:15.505Z,100686.10
2017-10-07T14:56:45.285Z,100684.49
2017-10-07T14:59:15.347Z,100676.69
